createdAt,value
2022-12-09T00:00:07.614Z,1.73
2022-12-09T00:02:34.710Z,1.65
2022-12-09T00:05:01.574Z,1.73
2022-12-09T00:07:28.496Z,1.86
2022-12-09T00:09:54.977Z,1.82
2022-12-09T00:12:21.489Z,1.69
2022-12-09T00:14:48.027Z,1.79
2022-12-09T00:17:14.825Z,1.83
2022-12-09T00:19:41.440Z,1.87
2022-12-09T00:22:07.909Z,1.80
2022-12-09T00:24:34.387Z,1.68
2022-12-09T00:27:01.032Z,1.74
2022-12-09T00:29:27.523Z,1.80
2022-12-09T00:31:54.061Z,1.77
2022-12-09T00:34:20.989Z,1.73
2022-12-09T00:36:47.688Z,1.62
2022-12-09T00:39:14.323Z,1.50
2022-12-09T00:41:40.890Z,1.56
2022-12-09T00:44:07.456Z,1.56
2022-12-09T00:46:34.109Z,1.59
2022-12-09T00:49:01.126Z,1.52
2022-12-09T00:51:27.651Z,1.24
2022-12-09T00:53:55.908Z,1.12
2022-12-09T00:56:25.011Z,1.20
2022-12-09T00:58:52.345Z,1.24
2022-12-09T01:01:18.871Z,1.25
2022-12-09T01:03:45.946Z,1.23
2022-12-09T01:06:18.129Z,1.09
2022-12-09T01:08:45.954Z,0.85
2022-12-09T01:11:22.524Z,0.75
2022-12-09T01:13:51.255Z,0.84
2022-12-09T01:16:25.530Z,0.63
2022-12-09T01:18:55.354Z,0.56
2022-12-09T01:21:21.804Z,0.63
2022-12-09T01:23:48.242Z,0.77
2022-12-09T01:26:14.889Z,0.74
2022-12-09T01:28:42.519Z,0.63
2022-12-09T01:31:17.868Z,0.69
2022-12-09T01:33:45.342Z,0.80
2022-12-09T01:36:18.657Z,0.77
2022-12-09T01:38:47.241Z,0.79
2022-12-09T01:41:16.575Z,0.77
2022-12-09T01:43:43.509Z,0.69
2022-12-09T01:46:10.577Z,0.67
2022-12-09T01:48:42.872Z,0.74
2022-12-09T01:51:19.771Z,0.73
2022-12-09T01:53:50.768Z,0.74
2022-12-09T01:56:25.527Z,0.74
2022-12-09T01:58:57.638Z,0.64
2022-12-09T02:01:24.527Z,0.64
2022-12-09T02:03:51.607Z,0.64
2022-12-09T02:06:19.084Z,0.63
2022-12-09T02:08:48.810Z,0.64
2022-12-09T02:11:52.072Z,0.52
2022-12-09T02:14:27.852Z,0.39
2022-12-09T02:17:21.421Z,0.16
2022-12-09T02:20:07.201Z,-0.00
2022-12-09T02:23:12.968Z,0.05
2022-12-09T02:25:48.160Z,0.07
2022-12-09T02:29:03.721Z,0.01
2022-12-09T02:32:14.278Z,0.01
2022-12-09T02:34:55.369Z,0.05
2022-12-09T02:37:35.720Z,0.15
2022-12-09T02:40:13.519Z,0.26
2022-12-09T02:42:42.619Z,0.25
2022-12-09T02:45:11.711Z,0.15
2022-12-09T02:47:47.317Z,-0.03
2022-12-09T02:50:19.550Z,0.01
2022-12-09T02:52:48.556Z,0.13
2022-12-09T02:55:19.342Z,0.13
2022-12-09T02:57:52.759Z,0.14
2022-12-09T03:00:19.879Z,0.18
2022-12-09T03:02:54.461Z,0.15
2022-12-09T03:05:36.720Z,0.12
2022-12-09T03:08:15.731Z,0.17
2022-12-09T03:11:01.135Z,0.23
2022-12-09T03:13:52.748Z,0.28
2022-12-09T03:16:41.020Z,0.25
2022-12-09T03:19:23.037Z,0.06
2022-12-09T03:21:55.949Z,-0.05
2022-12-09T03:24:32.662Z,-0.07
2022-12-09T03:27:06.569Z,0.01
2022-12-09T03:29:38.819Z,0.02
2022-12-09T03:32:09.142Z,0.14
2022-12-09T03:34:42.384Z,0.28
2022-12-09T03:37:12.132Z,0.27
2022-12-09T03:39:42.428Z,0.31
2022-12-09T03:42:21.380Z,0.25
2022-12-09T03:45:00.423Z,0.18
2022-12-09T03:47:27.813Z,0.14
2022-12-09T03:49:55.314Z,0.21
2022-12-09T03:52:58.821Z,0.18
2022-12-09T03:55:46.373Z,0.21
2022-12-09T03:58:15.889Z,0.11
2022-12-09T04:00:43.837Z,0.02
2022-12-09T04:03:14.759Z,-0.09
2022-12-09T04:05:43.218Z,-0.07
2022-12-09T04:08:10.759Z,-0.15
2022-12-09T04:10:37.402Z,-0.19
2022-12-09T04:13:04.005Z,-0.25
2022-12-09T04:15:30.980Z,-0.27
2022-12-09T04:17:57.530Z,-0.33
2022-12-09T04:20:24.033Z,-0.36
2022-12-09T04:22:50.537Z,-0.35
2022-12-09T04:25:17.503Z,-0.29
2022-12-09T04:27:44.308Z,-0.22
2022-12-09T04:30:11.983Z,-0.47
2022-12-09T04:32:38.951Z,-0.61
2022-12-09T04:35:06.268Z,-0.53
2022-12-09T04:37:33.382Z,-0.57
2022-12-09T04:40:00.241Z,-0.81
2022-12-09T04:42:29.049Z,-0.89
2022-12-09T04:44:55.866Z,-0.92
2022-12-09T04:47:22.439Z,-0.95
2022-12-09T04:49:49.688Z,-0.86
2022-12-09T04:52:19.895Z,-0.75
2022-12-09T04:54:46.443Z,-0.65
2022-12-09T04:57:13.140Z,-0.58
2022-12-09T04:59:39.629Z,-0.52
2022-12-09T05:02:06.480Z,-0.56
2022-12-09T05:04:33.650Z,-0.58
2022-12-09T05:07:00.453Z,-0.57
2022-12-09T05:09:27.398Z,-0.69
2022-12-09T05:11:58.122Z,-0.90
2022-12-09T05:14:25.260Z,-1.08
2022-12-09T05:16:52.268Z,-1.13
2022-12-09T05:19:18.906Z,-1.08
2022-12-09T05:21:46.417Z,-0.99
2022-12-09T05:24:13.178Z,-0.93
2022-12-09T05:26:40.050Z,-0.90
2022-12-09T05:29:07.015Z,-1.02
2022-12-09T05:31:33.628Z,-1.27
2022-12-09T05:34:00.767Z,-1.38
2022-12-09T05:36:27.804Z,-1.34
2022-12-09T05:38:55.471Z,-1.34
2022-12-09T05:41:23.813Z,-1.37
2022-12-09T05:43:51.962Z,-1.26
2022-12-09T05:46:19.337Z,-1.24
2022-12-09T05:48:54.830Z,-1.41
2022-12-09T05:51:28.102Z,-1.42
2022-12-09T05:54:00.161Z,-1.35
2022-12-09T05:56:27.455Z,-1.32
2022-12-09T05:58:55.439Z,-1.29
2022-12-09T06:01:23.633Z,-1.51
2022-12-09T06:03:52.104Z,-1.60
2022-12-09T06:06:22.945Z,-1.69
2022-12-09T06:08:50.129Z,-1.78
2022-12-09T06:11:34.896Z,-1.98
2022-12-09T06:14:01.576Z,-1.87
2022-12-09T06:16:29.279Z,-1.73
2022-12-09T06:18:56.172Z,-1.63
2022-12-09T06:21:23.661Z,-1.57
2022-12-09T06:23:51.582Z,-1.59
2022-12-09T06:26:29.912Z,-1.72
2022-12-09T06:28:57.585Z,-1.95
2022-12-09T06:31:26.009Z,-2.15
2022-12-09T06:33:55.904Z,-2.18
2022-12-09T06:36:26.086Z,-2.07
2022-12-09T06:38:53.299Z,-1.91
2022-12-09T06:41:20.113Z,-1.90
2022-12-09T06:43:46.825Z,-1.98
2022-12-09T06:46:21.231Z,-2.01
2022-12-09T06:48:48.160Z,-1.94
2022-12-09T06:51:17.056Z,-1.91
2022-12-09T06:53:44.927Z,-1.89
2022-12-09T06:56:13.658Z,-1.88
2022-12-09T06:58:45.857Z,-1.97
2022-12-09T07:01:14.221Z,-1.95
2022-12-09T07:03:44.129Z,-2.00
2022-12-09T07:06:37.315Z,-2.19
2022-12-09T07:09:17.832Z,-2.18
2022-12-09T07:11:51.479Z,-2.31
2022-12-09T07:14:20.260Z,-2.51
2022-12-09T07:16:47.998Z,-2.54
2022-12-09T07:19:21.289Z,-2.58
2022-12-09T07:21:49.650Z,-2.65
2022-12-09T07:24:19.236Z,-2.48
2022-12-09T07:26:46.378Z,-2.49
2022-12-09T07:29:12.979Z,-2.67
2022-12-09T07:31:39.949Z,-2.60
2022-12-09T07:34:07.206Z,-2.51
2022-12-09T07:36:35.821Z,-2.47
2022-12-09T07:39:07.596Z,-2.42
2022-12-09T07:41:34.696Z,-2.40
2022-12-09T07:44:01.384Z,-2.44
2022-12-09T07:46:28.563Z,-2.45
2022-12-09T07:48:57.384Z,-2.39
2022-12-09T07:51:26.000Z,-2.28
2022-12-09T07:53:53.802Z,-2.28
2022-12-09T07:56:22.386Z,-2.33
2022-12-09T07:58:53.171Z,-2.44
2022-12-09T08:01:24.675Z,-2.53
2022-12-09T08:03:52.397Z,-2.45
2022-12-09T08:06:22.906Z,-2.40
2022-12-09T08:08:51.136Z,-2.45
2022-12-09T08:11:22.562Z,-2.59
2022-12-09T08:13:50.302Z,-2.64
2022-12-09T08:16:21.489Z,-2.66
2022-12-09T08:18:49.865Z,-2.52
2022-12-09T08:21:30.719Z,-2.39
2022-12-09T08:24:03.167Z,-2.20
2022-12-09T08:26:37.544Z,-2.14
2022-12-09T08:29:11.117Z,-2.09
2022-12-09T08:31:41.595Z,-2.11
2022-12-09T08:34:09.134Z,-2.13
2022-12-09T08:36:37.016Z,-2.19
2022-12-09T08:39:04.232Z,-2.36
2022-12-09T08:41:38.950Z,-2.36
2022-12-09T08:44:13.656Z,-2.24
2022-12-09T08:46:44.522Z,-2.09
2022-12-09T08:49:12.721Z,-2.00
2022-12-09T08:51:39.863Z,-1.95
2022-12-09T08:54:06.961Z,-1.97
2022-12-09T08:56:34.367Z,-2.09
2022-12-09T08:59:01.351Z,-2.19
2022-12-09T09:01:35.813Z,-2.40
2022-12-09T09:04:08.561Z,-2.47
2022-12-09T09:06:39.414Z,-2.52
2022-12-09T09:09:09.284Z,-2.57
2022-12-09T09:11:40.373Z,-2.50
2022-12-09T09:14:10.180Z,-2.36
2022-12-09T09:16:40.837Z,-2.22
2022-12-09T09:19:08.917Z,-2.10
2022-12-09T09:21:36.087Z,-2.05
2022-12-09T09:24:10.363Z,-2.19
2022-12-09T09:26:41.803Z,-2.33
2022-12-09T09:29:12.596Z,-2.33
2022-12-09T09:31:39.956Z,-2.34
2022-12-09T09:34:07.387Z,-2.25
2022-12-09T09:36:34.712Z,-2.18
2022-12-09T09:39:01.541Z,-2.09
2022-12-09T09:41:40.239Z,-1.97
2022-12-09T09:44:25.647Z,-1.98
2022-12-09T09:46:56.543Z,-2.10
2022-12-09T09:49:45.673Z,-2.18
2022-12-09T09:52:23.313Z,-2.15
2022-12-09T09:54:52.013Z,-1.95
2022-12-09T09:57:27.622Z,-2.07
2022-12-09T10:00:22.877Z,-2.11
2022-12-09T10:03:10.636Z,-2.04
2022-12-09T10:06:22.798Z,-1.94
2022-12-09T10:09:19.844Z,-2.07
2022-12-09T10:12:17.602Z,-2.15
2022-12-09T10:15:18.845Z,-2.17
2022-12-09T10:18:14.583Z,-1.95
2022-12-09T10:20:42.477Z,-1.82
2022-12-09T10:23:16.434Z,-1.86
2022-12-09T10:25:58.360Z,-1.90
2022-12-09T10:28:37.993Z,-1.86
2022-12-09T10:31:05.371Z,-1.70
2022-12-09T10:33:37.437Z,-1.61
2022-12-09T10:36:07.751Z,-1.54
2022-12-09T10:38:41.264Z,-1.40
2022-12-09T10:41:52.524Z,-1.30
2022-12-09T10:44:24.078Z,-1.14
2022-12-09T10:47:30.877Z,-1.09
2022-12-09T10:49:59.374Z,-1.12
2022-12-09T10:52:37.020Z,-1.13
2022-12-09T10:55:04.433Z,-1.04
2022-12-09T10:57:31.299Z,-0.98
2022-12-09T11:00:08.745Z,-1.05
2022-12-09T11:02:35.936Z,-1.02
2022-12-09T11:05:25.477Z,-0.95
2022-12-09T11:07:55.252Z,-0.87
2022-12-09T11:10:26.810Z,-0.86
2022-12-09T11:13:08.285Z,-0.80
2022-12-09T11:15:45.241Z,-0.73
2022-12-09T11:18:25.037Z,-0.68
2022-12-09T11:21:06.226Z,-0.58
2022-12-09T11:23:35.706Z,-0.56
2022-12-09T11:26:21.728Z,-0.50
2022-12-09T11:29:04.472Z,-0.48
2022-12-09T11:31:38.214Z,-0.39
2022-12-09T11:34:23.088Z,-0.38
2022-12-09T11:36:57.692Z,-0.34
2022-12-09T11:39:35.421Z,-0.31
2022-12-09T11:42:20.675Z,-0.22
2022-12-09T11:45:01.909Z,-0.21
2022-12-09T11:48:21.166Z,-0.19
2022-12-09T11:50:34.344Z,-0.19
2022-12-09T11:53:11.431Z,-0.19
2022-12-09T11:56:15.917Z,-0.14
2022-12-09T11:58:50.244Z,-0.06
2022-12-09T12:02:01.378Z,0.01
2022-12-09T12:04:40.120Z,0.04
2022-12-09T12:07:18.021Z,-0.01
2022-12-09T12:09:57.325Z,-0.02
2022-12-09T12:13:20.044Z,-0.02
2022-12-09T12:16:07.265Z,-0.02
2022-12-09T12:18:47.532Z,-0.18
2022-12-09T12:21:31.953Z,-0.08
2022-12-09T12:24:04.450Z,0.00
2022-12-09T12:27:11.856Z,0.02
2022-12-09T12:30:02.595Z,0.10
2022-12-09T12:32:41.148Z,0.18
2022-12-09T12:35:45.919Z,0.24
2022-12-09T12:38:30.366Z,0.28
2022-12-09T12:41:22.053Z,0.32
2022-12-09T12:44:38.039Z,0.41
2022-12-09T12:47:33.098Z,0.38
2022-12-09T12:50:34.868Z,0.42
2022-12-09T12:53:18.500Z,0.55
2022-12-09T12:55:51.377Z,0.55
2022-12-09T12:59:01.645Z,0.57
2022-12-09T13:01:55.754Z,0.64
2022-12-09T13:04:40.820Z,0.68
2022-12-09T13:07:33.573Z,0.73
2022-12-09T13:10:14.888Z,0.66
2022-12-09T13:12:54.549Z,0.71
2022-12-09T13:15:33.520Z,0.78
2022-12-09T13:18:15.033Z,0.82
2022-12-09T13:20:53.683Z,0.93
2022-12-09T13:24:08.485Z,0.86
2022-12-09T13:27:19.446Z,0.94
2022-12-09T13:30:02.973Z,1.15
2022-12-09T13:33:18.289Z,1.22
2022-12-09T13:36:06.093Z,1.38
2022-12-09T13:38:36.362Z,1.52
2022-12-09T13:41:30.576Z,1.46
2022-12-09T13:44:09.677Z,1.56
2022-12-09T13:46:36.531Z,1.68
2022-12-09T13:49:24.568Z,1.47
2022-12-09T13:51:54.887Z,1.50
2022-12-09T13:54:28.506Z,1.55
2022-12-09T13:57:06.857Z,1.61
2022-12-09T13:59:52.789Z,1.66
2022-12-09T14:02:31.398Z,1.49
2022-12-09T14:05:11.993Z,1.42
2022-12-09T14:07:50.247Z,1.39
2022-12-09T14:10:37.776Z,1.18
2022-12-09T14:13:24.165Z,1.21
2022-12-09T14:16:45.112Z,1.28
2022-12-09T14:19:23.671Z,1.42
2022-12-09T14:22:25.128Z,1.58
2022-12-09T14:25:19.044Z,1.71
2022-12-09T14:28:10.090Z,1.80
2022-12-09T14:30:48.891Z,1.93
2022-12-09T14:33:33.498Z,1.75
2022-12-09T14:36:26.081Z,1.79
2022-12-09T14:39:26.001Z,1.79
2022-12-09T14:42:06.140Z,1.69
2022-12-09T14:44:59.537Z,1.51
2022-12-09T14:47:33.036Z,1.50
2022-12-09T14:50:16.901Z,1.46
2022-12-09T14:53:03.033Z,1.52
2022-12-09T14:55:36.843Z,1.66
2022-12-09T14:58:04.513Z,1.66
2022-12-09T15:00:40.743Z,1.61
2022-12-09T15:03:45.271Z,1.53
2022-12-09T15:06:18.623Z,1.61
2022-12-09T15:08:46.781Z,1.61
2022-12-09T15:11:17.392Z,1.69
2022-12-09T15:13:47.964Z,1.63
2022-12-09T15:16:23.985Z,1.49
2022-12-09T15:18:53.533Z,1.34
2022-12-09T15:21:31.717Z,1.24
2022-12-09T15:24:00.797Z,1.07
2022-12-09T15:26:32.098Z,1.10
2022-12-09T15:29:00.986Z,1.26
2022-12-09T15:31:30.644Z,1.41
2022-12-09T15:34:01.016Z,1.46
2022-12-09T15:36:35.722Z,1.43
2022-12-09T15:39:11.164Z,1.45
2022-12-09T15:42:03.547Z,1.37
2022-12-09T15:44:39.623Z,1.36
2022-12-09T15:47:24.670Z,1.14
2022-12-09T15:50:03.680Z,1.11
2022-12-09T15:52:41.588Z,0.97
2022-12-09T15:55:17.246Z,0.91
2022-12-09T15:57:45.517Z,1.10
2022-12-09T16:00:13.356Z,1.13
2022-12-09T16:02:41.153Z,1.07
2022-12-09T16:05:10.239Z,0.95
2022-12-09T16:07:38.223Z,0.87
2022-12-09T16:10:12.545Z,0.83
2022-12-09T16:12:41.326Z,0.81
2022-12-09T16:15:12.134Z,0.83
2022-12-09T16:17:55.061Z,0.79
2022-12-09T16:20:36.020Z,0.86
2022-12-09T16:23:05.739Z,0.95
2022-12-09T16:25:43.312Z,0.98
2022-12-09T16:28:24.616Z,0.96
2022-12-09T16:31:00.590Z,0.89
2022-12-09T16:33:31.790Z,0.97
2022-12-09T16:36:06.526Z,0.97
2022-12-09T16:38:35.481Z,0.84
2022-12-09T16:41:10.909Z,0.73
2022-12-09T16:43:57.923Z,0.58
2022-12-09T16:46:27.513Z,0.57
2022-12-09T16:48:54.045Z,0.63
2022-12-09T16:51:24.991Z,0.58
2022-12-09T16:53:54.132Z,0.51
2022-12-09T16:56:27.832Z,0.35
2022-12-09T16:58:55.761Z,0.32
2022-12-09T17:01:31.818Z,0.08
2022-12-09T17:04:10.396Z,-0.10
2022-12-09T17:06:36.879Z,-0.10
2022-12-09T17:09:03.800Z,-0.10
2022-12-09T17:11:30.308Z,-0.21
2022-12-09T17:13:56.849Z,-0.25
2022-12-09T17:16:25.821Z,-0.28
2022-12-09T17:18:52.862Z,-0.37
2022-12-09T17:21:19.980Z,-0.59
2022-12-09T17:23:47.604Z,-0.58
2022-12-09T17:26:18.146Z,-0.61
2022-12-09T17:28:45.991Z,-0.59
2022-12-09T17:31:20.343Z,-0.68
2022-12-09T17:33:47.629Z,-0.73
2022-12-09T17:36:16.163Z,-0.69
2022-12-09T17:38:43.578Z,-0.75
2022-12-09T17:41:18.797Z,-0.86
2022-12-09T17:43:46.279Z,-0.75
2022-12-09T17:46:13.816Z,-0.78
2022-12-09T17:48:41.688Z,-0.89
2022-12-09T17:51:12.651Z,-0.95
2022-12-09T17:53:47.892Z,-1.09
2022-12-09T17:56:25.917Z,-1.02
2022-12-09T17:59:04.629Z,-1.05
2022-12-09T18:01:33.856Z,-0.97
2022-12-09T18:04:06.386Z,-1.00
2022-12-09T18:06:39.700Z,-0.98
2022-12-09T18:09:12.521Z,-0.92
2022-12-09T18:11:39.623Z,-0.89
2022-12-09T18:14:07.720Z,-1.05
2022-12-09T18:16:34.474Z,-1.08
2022-12-09T18:19:15.330Z,-1.15
2022-12-09T18:21:43.399Z,-1.30
2022-12-09T18:24:10.602Z,-1.23
2022-12-09T18:26:41.578Z,-1.37
2022-12-09T18:29:14.375Z,-1.51
2022-12-09T18:31:42.061Z,-1.59
2022-12-09T18:34:08.635Z,-1.55
2022-12-09T18:36:35.252Z,-1.42
2022-12-09T18:39:07.269Z,-1.29
2022-12-09T18:41:34.494Z,-1.24
2022-12-09T18:44:06.351Z,-1.15
2022-12-09T18:46:37.253Z,-0.99
2022-12-09T18:49:07.345Z,-0.78
2022-12-09T18:51:34.623Z,-0.77
2022-12-09T18:54:03.657Z,-0.88
2022-12-09T18:56:30.446Z,-0.82
2022-12-09T18:59:06.552Z,-0.77
2022-12-09T19:01:38.748Z,-0.90
2022-12-09T19:04:07.249Z,-0.96
2022-12-09T19:06:37.955Z,-0.96
2022-12-09T19:09:17.799Z,-1.04
2022-12-09T19:11:46.464Z,-1.13
2022-12-09T19:14:15.289Z,-1.36
2022-12-09T19:16:43.005Z,-1.52
2022-12-09T19:19:17.020Z,-1.57
2022-12-09T19:21:44.528Z,-1.59
2022-12-09T19:24:18.797Z,-1.60
2022-12-09T19:26:45.819Z,-1.60
2022-12-09T19:29:14.501Z,-1.66
2022-12-09T19:31:44.944Z,-1.83
2022-12-09T19:34:20.029Z,-1.91
2022-12-09T19:36:51.833Z,-1.90
2022-12-09T19:39:38.377Z,-1.91
2022-12-09T19:42:05.316Z,-2.05
2022-12-09T19:44:59.733Z,-1.99
2022-12-09T19:47:18.316Z,-1.92
2022-12-09T19:49:44.883Z,-1.78
2022-12-09T19:52:12.313Z,-1.74
2022-12-09T19:54:39.080Z,-1.86
2022-12-09T19:57:05.553Z,-2.06
2022-12-09T19:59:32.062Z,-2.20
2022-12-09T20:01:58.644Z,-2.41
2022-12-09T20:04:48.153Z,-2.44
2022-12-09T20:07:13.023Z,-2.45
2022-12-09T20:09:39.681Z,-2.39
2022-12-09T20:12:06.325Z,-2.43
2022-12-09T20:14:33.013Z,-2.51
2022-12-09T20:16:59.529Z,-2.54
2022-12-09T20:19:33.513Z,-2.53
2022-12-09T20:22:00.012Z,-2.59
2022-12-09T20:24:26.710Z,-2.71
2022-12-09T20:26:53.233Z,-2.57
2022-12-09T20:31:55.986Z,-2.63
2022-12-09T20:34:24.775Z,-2.63
2022-12-09T20:36:51.362Z,-2.58
2022-12-09T20:39:21.135Z,-2.48
2022-12-09T20:41:48.556Z,-2.42
2022-12-09T20:44:16.706Z,-2.64
2022-12-09T20:46:50.231Z,-2.86
2022-12-09T20:49:20.074Z,-2.77
2022-12-09T20:51:49.110Z,-2.68
2022-12-09T20:54:16.231Z,-2.52
2022-12-09T20:56:42.792Z,-2.41
2022-12-09T20:59:13.399Z,-2.47
2022-12-09T21:01:40.550Z,-2.44
2022-12-09T21:04:08.250Z,-2.45
2022-12-09T21:06:38.608Z,-2.66
2022-12-09T21:09:10.039Z,-2.67
2022-12-09T21:11:37.084Z,-2.68
2022-12-09T21:14:06.652Z,-2.81
2022-12-09T21:16:39.249Z,-2.80
2022-12-09T21:19:10.226Z,-2.65
2022-12-09T21:21:42.703Z,-2.88
2022-12-09T21:24:14.830Z,-3.00
2022-12-09T21:26:41.771Z,-2.92
2022-12-09T21:29:10.939Z,-2.84
2022-12-09T21:31:40.872Z,-2.90
2022-12-09T21:34:10.715Z,-3.12
2022-12-09T21:36:43.590Z,-3.32
2022-12-09T21:39:15.791Z,-3.29
2022-12-09T21:41:43.545Z,-3.06
2022-12-09T21:44:15.982Z,-3.03
2022-12-09T21:46:42.983Z,-3.15
2022-12-09T21:49:10.309Z,-3.28
2022-12-09T21:51:36.803Z,-3.21
2022-12-09T21:54:04.517Z,-3.04
2022-12-09T21:56:34.950Z,-3.20
2022-12-09T21:59:03.236Z,-3.27
2022-12-09T22:01:41.953Z,-3.18
2022-12-09T22:04:15.946Z,-3.22
2022-12-09T22:06:49.912Z,-3.24
2022-12-09T22:09:20.552Z,-3.39
2022-12-09T22:11:50.610Z,-3.43
2022-12-09T22:14:17.486Z,-3.41
2022-12-09T22:16:46.176Z,-3.29
2022-12-09T22:19:18.277Z,-3.29
2022-12-09T22:21:45.683Z,-3.45
2022-12-09T22:24:13.053Z,-3.60
2022-12-09T22:26:40.151Z,-3.64
2022-12-09T22:29:07.852Z,-3.67
2022-12-09T22:31:37.955Z,-3.77
2022-12-09T22:34:13.370Z,-3.75
2022-12-09T22:36:41.057Z,-3.71
2022-12-09T22:39:12.023Z,-3.64
2022-12-09T22:41:38.560Z,-3.50
2022-12-09T22:44:05.200Z,-3.41
2022-12-09T22:46:33.775Z,-3.53
2022-12-09T22:49:04.861Z,-3.70
2022-12-09T22:51:36.173Z,-3.86
2022-12-09T22:54:07.978Z,-3.99
2022-12-09T22:56:39.503Z,-3.89
2022-12-09T22:59:06.896Z,-3.84
2022-12-09T23:01:37.196Z,-3.85
2022-12-09T23:04:06.708Z,-3.83
2022-12-09T23:06:36.993Z,-3.82
2022-12-09T23:09:07.003Z,-3.90
2022-12-09T23:11:34.174Z,-3.89
2022-12-09T23:14:01.188Z,-3.94
2022-12-09T23:16:28.591Z,-4.12
2022-12-09T23:18:57.567Z,-4.11
2022-12-09T23:21:33.697Z,-4.24
2022-12-09T23:24:05.623Z,-4.26
2022-12-09T23:26:36.926Z,-4.24
2022-12-09T23:29:06.927Z,-4.26
2022-12-09T23:31:36.513Z,-4.18
2022-12-09T23:34:08.313Z,-3.99
2022-12-09T23:36:39.328Z,-3.86
2022-12-09T23:39:10.938Z,-3.81
2022-12-09T23:41:39.974Z,-3.88
2022-12-09T23:44:13.031Z,-4.02
2022-12-09T23:46:39.887Z,-4.14
2022-12-09T23:49:07.516Z,-4.23
2022-12-09T23:51:38.261Z,-4.28
2022-12-09T23:54:07.147Z,-4.29
2022-12-09T23:56:39.444Z,-4.14
2022-12-09T23:59:10.671Z,-3.97
